Richland, WA

12:35 PM PDT on April 19, 2015 (GMT -0700)
Eastern Oreg Regional At Pendleton | | Change Station
CLOSE
Current Station
Airport
Location: Pendleton,
Elevation: 1496 ft
Nearby Weather Stations

Elev 1496 ft 45.70 °N, 118.84 °W | Updated 42 minutes ago

Clear
Clear
66 °F
Feels Like 66 °F
N
6
Wind Variable Wind from WSW

Today
High -- | Low -- °F
--% Chance of Precip.
Yesterday
High -- | Low -- °F
Precip. -- in
6:03 AM 7:49 PM
New Moon, 2% visible
Pressure 30.10 in
Visibility 10.0 miles
Clouds Clear
Dew Point 33 °F
Humidity 29%
Rainfall 0.00 in
Snow Depth Not available.
UV 8 out of 12
Pollen 10.50 out of 12
Air Quality Not available.
Flu Activity Regional
METAR KPDT 191853Z 25005KT 10SM CLR 19/01 A3012 RMK AO2 SLP193 T01890006

More Conditions Fewer Conditions

Pressure 30.10 in
Visibility 10.0 miles
Clouds Clear
Dew Point 33 °F
Humidity 29%
Rainfall 0.00 in
Snow Depth Not available.
UV 8 out of 12
Pollen 10.50 out of 12
Air Quality Not available.
Flu Activity Regional
METAR KPDT 191853Z 25005KT 10SM CLR 19/01 A3012 RMK AO2 SLP193 T01890006

More Conditions Fewer Conditions

10-Day Weather Forecast

Almanac

Astronomy

Apr. 19, 2015 Rise Set
Actual Time
Civil Twilight
Nautical Twilight
Astronomical Twilight
Moon
Length of Visible Light
Length of Day
Tomorrow will be .
, % of the Moon is Illuminated

Today's Extremes

State Highs State Lows

Community

WunderPhotos

Upload Photos

1,814,944 photos uploaded!

WunderBlogs® & News

Nearby

Air Quality

  Air Quality AQ Index Pollutant
Not available.

Snow Depth

Station Depth Elevation

Earthquake Activity

City Distance Mag. Time & Date
Minimum magnitude displayed is 2.5.

Coastal Water Temperatures

Place Temperature

Stations

Nearby Weather Stations

Station Location Temp. Windchill Dew Point Humidity Wind Precip. Elev Updated Type